createdAt,value
2023-08-16T00:01:07.269Z,9.60
2023-08-16T00:03:34.186Z,9.40
2023-08-16T00:06:09.479Z,8.70
2023-08-16T00:08:36.740Z,9.20
2023-08-16T00:11:03.794Z,9.20
2023-08-16T00:13:31.161Z,9.50
2023-08-16T00:15:58.632Z,9.10
2023-08-16T00:18:25.677Z,8.80
2023-08-16T00:20:52.321Z,9.30
2023-08-16T00:23:19.093Z,9.00
2023-08-16T00:25:46.019Z,8.50
2023-08-16T00:28:12.661Z,8.40
2023-08-16T00:30:39.430Z,8.70
2023-08-16T00:33:06.280Z,8.90
2023-08-16T00:35:32.893Z,8.60
2023-08-16T00:37:59.955Z,9.40
2023-08-16T00:40:27.102Z,8.90
2023-08-16T00:42:54.146Z,9.40
2023-08-16T00:45:20.903Z,9.10
2023-08-16T00:47:47.764Z,9.00
2023-08-16T00:50:14.496Z,9.20
2023-08-16T00:52:42.382Z,8.80
2023-08-16T00:55:10.474Z,9.20
2023-08-16T00:57:37.233Z,9.70
2023-08-16T01:00:04.652Z,8.90
2023-08-16T01:02:31.378Z,9.40
2023-08-16T01:04:58.894Z,9.70
2023-08-16T01:07:25.951Z,10.70
2023-08-16T01:09:53.117Z,10.10
2023-08-16T01:12:29.262Z,9.80
2023-08-16T01:15:08.526Z,10.00
2023-08-16T01:17:36.180Z,10.70
2023-08-16T01:20:05.520Z,9.50
2023-08-16T01:22:51.294Z,10.00
2023-08-16T01:26:12.812Z,9.60
2023-08-16T01:28:41.214Z,9.70
2023-08-16T01:31:08.614Z,9.40
2023-08-16T01:33:35.318Z,9.50
2023-08-16T01:36:02.071Z,8.70
2023-08-16T01:38:28.814Z,8.70
2023-08-16T01:41:21.897Z,8.90
2023-08-16T01:43:50.054Z,8.80
2023-08-16T01:46:17.776Z,9.40
2023-08-16T01:48:46.620Z,9.10
2023-08-16T01:51:13.687Z,9.40
2023-08-16T01:53:40.636Z,8.30
2023-08-16T01:56:07.414Z,9.10
2023-08-16T01:58:34.541Z,8.20
2023-08-16T02:01:01.339Z,9.10
2023-08-16T02:03:28.168Z,9.40
2023-08-16T02:05:55.202Z,8.80
2023-08-16T02:08:21.938Z,8.80
2023-08-16T02:10:48.995Z,8.90
2023-08-16T02:13:15.635Z,9.40
2023-08-16T02:15:42.307Z,9.30
2023-08-16T02:18:09.096Z,9.70
2023-08-16T02:20:35.998Z,9.50
2023-08-16T02:23:02.697Z,8.90
2023-08-16T02:25:29.999Z,10.90
2023-08-16T02:27:56.755Z,11.30
2023-08-16T02:30:23.803Z,11.80
2023-08-16T02:32:50.611Z,12.20
2023-08-16T02:35:17.295Z,12.20
2023-08-16T02:37:44.058Z,12.90
2023-08-16T02:40:11.388Z,11.40
2023-08-16T02:42:38.372Z,12.00
2023-08-16T02:45:05.764Z,12.20
2023-08-16T02:47:32.578Z,12.20
2023-08-16T02:49:59.218Z,12.30
2023-08-16T02:52:25.885Z,13.60
2023-08-16T02:54:52.640Z,13.10
2023-08-16T02:57:19.384Z,12.70
2023-08-16T02:59:46.943Z,12.40
2023-08-16T03:02:16.867Z,13.00
2023-08-16T03:04:43.736Z,13.30
2023-08-16T03:07:12.075Z,13.40
2023-08-16T03:09:40.187Z,12.00
2023-08-16T03:12:07.458Z,12.40
2023-08-16T03:14:34.492Z,12.50
2023-08-16T03:17:01.262Z,11.90
2023-08-16T03:19:28.320Z,11.30
2023-08-16T03:21:56.463Z,12.50
2023-08-16T03:24:23.464Z,11.60
2023-08-16T03:26:50.408Z,11.50
2023-08-16T03:29:17.155Z,11.70
2023-08-16T03:31:43.907Z,11.60
2023-08-16T03:34:10.758Z,12.20
2023-08-16T03:36:37.421Z,12.10
2023-08-16T03:39:04.652Z,12.60
2023-08-16T03:41:31.501Z,12.70
2023-08-16T03:43:58.147Z,12.40
2023-08-16T03:46:24.921Z,12.00
2023-08-16T03:48:52.053Z,12.80
2023-08-16T03:51:18.899Z,13.20
2023-08-16T03:53:45.680Z,12.90
2023-08-16T03:56:12.349Z,12.80
2023-08-16T03:58:39.089Z,13.00
2023-08-16T04:01:06.245Z,12.10
2023-08-16T04:03:33.245Z,12.30
2023-08-16T04:06:00.253Z,12.10
2023-08-16T04:08:27.008Z,12.40
2023-08-16T04:10:53.656Z,12.50
2023-08-16T04:13:20.248Z,12.30
2023-08-16T04:15:47.147Z,12.50
2023-08-16T04:18:13.827Z,12.60
2023-08-16T04:20:40.552Z,11.50
2023-08-16T04:23:07.311Z,10.50
2023-08-16T04:25:34.252Z,10.10
2023-08-16T04:28:00.921Z,10.00
2023-08-16T04:30:27.652Z,8.70
2023-08-16T04:32:55.003Z,9.00
2023-08-16T04:35:21.724Z,8.60
2023-08-16T04:37:48.526Z,8.10
2023-08-16T04:40:15.275Z,7.50
2023-08-16T04:42:42.025Z,7.50
2023-08-16T04:45:09.099Z,6.90
2023-08-16T04:47:35.862Z,6.70
2023-08-16T04:50:02.679Z,6.10
2023-08-16T04:52:29.476Z,7.20
2023-08-16T04:54:56.286Z,6.20
2023-08-16T04:57:25.472Z,7.50
2023-08-16T04:59:53.700Z,7.60
2023-08-16T05:02:20.445Z,6.80
2023-08-16T05:04:47.116Z,6.70
2023-08-16T05:07:13.950Z,6.60
2023-08-16T05:09:40.594Z,6.70
2023-08-16T05:12:07.444Z,6.90
2023-08-16T05:14:34.200Z,6.40
2023-08-16T05:17:01.163Z,6.60
2023-08-16T05:19:27.819Z,6.20
2023-08-16T05:21:54.667Z,6.40
2023-08-16T05:24:21.440Z,6.90
2023-08-16T05:26:48.174Z,6.40
2023-08-16T05:29:14.820Z,5.90
2023-08-16T05:31:41.470Z,6.10
2023-08-16T05:34:08.049Z,5.70
2023-08-16T05:36:34.623Z,5.80
2023-08-16T05:39:01.195Z,5.40
2023-08-16T05:41:27.862Z,5.40
2023-08-16T05:43:54.524Z,5.90
2023-08-16T05:46:21.218Z,5.50
2023-08-16T05:48:48.022Z,5.60
2023-08-16T05:51:14.795Z,7.40
2023-08-16T05:53:41.620Z,8.10
2023-08-16T05:56:08.288Z,7.50
2023-08-16T05:58:35.044Z,7.40
2023-08-16T06:01:01.707Z,6.80
2023-08-16T06:03:28.588Z,6.20
2023-08-16T06:05:55.402Z,6.80
2023-08-16T06:08:22.045Z,6.60
2023-08-16T06:10:48.700Z,6.50
2023-08-16T06:13:15.655Z,6.00
2023-08-16T06:15:42.412Z,6.20
2023-08-16T06:18:09.235Z,6.20
2023-08-16T06:20:36.014Z,6.00
2023-08-16T06:23:03.270Z,5.90
2023-08-16T06:25:29.916Z,5.90
2023-08-16T06:27:56.670Z,5.80
2023-08-16T06:30:23.460Z,6.20
2023-08-16T06:32:50.186Z,6.10
2023-08-16T06:35:16.882Z,5.90
2023-08-16T06:37:44.595Z,5.80
2023-08-16T06:40:11.914Z,6.00
2023-08-16T06:42:39.320Z,6.00
2023-08-16T06:45:07.844Z,6.10
2023-08-16T06:47:34.594Z,6.40
2023-08-16T06:50:01.561Z,6.20
2023-08-16T06:52:28.453Z,5.90
2023-08-16T06:54:55.131Z,6.90
2023-08-16T06:57:22.246Z,6.60
2023-08-16T06:59:49.145Z,6.60
2023-08-16T07:02:16.052Z,6.20
2023-08-16T07:04:43.154Z,7.10
2023-08-16T07:07:11.335Z,6.90
2023-08-16T07:09:38.087Z,6.60
2023-08-16T07:12:04.939Z,6.50
2023-08-16T07:14:31.483Z,5.50
2023-08-16T07:16:58.069Z,5.20
2023-08-16T07:19:24.776Z,5.00
2023-08-16T07:21:51.422Z,5.10
2023-08-16T07:24:18.080Z,5.00
2023-08-16T07:26:44.824Z,4.90
2023-08-16T07:29:11.420Z,5.00
2023-08-16T07:31:38.190Z,4.80
2023-08-16T07:34:05.192Z,4.90
2023-08-16T07:36:33.557Z,5.10
2023-08-16T07:39:01.595Z,4.90
2023-08-16T07:41:28.500Z,4.60
2023-08-16T07:43:55.147Z,4.60
2023-08-16T07:46:21.817Z,4.90
2023-08-16T07:48:48.634Z,4.40
2023-08-16T07:51:15.389Z,5.20
2023-08-16T07:53:42.262Z,5.20
2023-08-16T07:56:09.007Z,5.60
2023-08-16T07:58:35.766Z,7.30
2023-08-16T08:01:02.409Z,10.60
2023-08-16T08:03:29.404Z,21.40
2023-08-16T08:06:02.360Z,22.10
2023-08-16T08:08:29.017Z,23.00
2023-08-16T08:10:55.964Z,19.70
2023-08-16T08:13:22.628Z,7.80
2023-08-16T08:15:49.394Z,6.30
2023-08-16T08:18:16.286Z,7.50
2023-08-16T08:20:43.057Z,9.90
2023-08-16T08:23:09.727Z,8.50
2023-08-16T08:25:36.890Z,5.30
2023-08-16T08:28:04.127Z,6.00
2023-08-16T08:30:30.664Z,4.90
2023-08-16T08:32:57.488Z,5.00
2023-08-16T08:35:24.505Z,5.60
2023-08-16T08:37:51.125Z,5.10
2023-08-16T08:40:17.943Z,5.20
2023-08-16T08:42:47.084Z,5.00
2023-08-16T08:45:16.926Z,4.70
2023-08-16T08:47:45.569Z,5.30
2023-08-16T08:50:12.555Z,5.30
2023-08-16T08:52:39.394Z,4.60
2023-08-16T08:55:06.773Z,4.90
2023-08-16T08:57:35.214Z,4.70
2023-08-16T09:00:02.955Z,4.30
2023-08-16T09:02:31.568Z,4.20
2023-08-16T09:05:02.991Z,4.70
2023-08-16T09:07:32.306Z,5.70
2023-08-16T09:10:00.595Z,5.00
2023-08-16T09:12:27.658Z,4.70
2023-08-16T09:14:54.598Z,4.60
2023-08-16T09:17:21.636Z,3.90
2023-08-16T09:19:48.302Z,3.90
2023-08-16T09:22:14.878Z,4.00
2023-08-16T09:24:41.962Z,3.20
2023-08-16T09:27:08.667Z,3.50
2023-08-16T09:29:39.003Z,3.60
2023-08-16T09:32:07.294Z,3.60
2023-08-16T09:34:35.886Z,4.10
2023-08-16T09:37:04.151Z,3.80
2023-08-16T09:39:31.048Z,3.70
2023-08-16T09:44:42.460Z,3.90
2023-08-16T09:47:17.607Z,4.00
2023-08-16T09:49:47.308Z,3.90
2023-08-16T09:52:14.639Z,3.90
2023-08-16T09:54:41.692Z,4.10
2023-08-16T09:59:40.624Z,4.00
2023-08-16T10:02:14.222Z,4.00
2023-08-16T10:07:13.633Z,4.40
2023-08-16T10:09:43.215Z,3.90
2023-08-16T10:12:11.720Z,4.20
2023-08-16T10:14:39.118Z,3.90
2023-08-16T10:17:06.207Z,3.60
2023-08-16T10:19:35.156Z,4.40
2023-08-16T10:22:06.529Z,4.30
2023-08-16T10:27:07.835Z,3.60
2023-08-16T10:29:42.714Z,3.40
2023-08-16T10:32:15.363Z,2.90
2023-08-16T10:34:42.692Z,3.20
2023-08-16T10:37:10.286Z,2.70
2023-08-16T10:39:36.890Z,2.40
2023-08-16T10:42:05.224Z,2.50
2023-08-16T10:44:31.965Z,2.70
2023-08-16T10:46:59.081Z,2.30
2023-08-16T10:49:41.323Z,2.70
2023-08-16T10:52:08.064Z,2.40
2023-08-16T10:54:38.853Z,2.50
2023-08-16T10:57:07.425Z,2.40
2023-08-16T10:59:41.249Z,2.80
2023-08-16T11:02:12.931Z,2.80
2023-08-16T11:04:45.647Z,2.70
2023-08-16T11:07:14.726Z,2.70
2023-08-16T11:09:42.859Z,2.70
2023-08-16T11:12:09.602Z,2.90
2023-08-16T11:14:36.651Z,2.90
2023-08-16T11:17:03.766Z,3.00
2023-08-16T11:19:31.056Z,3.20
2023-08-16T11:22:01.214Z,2.80
2023-08-16T11:24:28.664Z,2.70
2023-08-16T11:26:55.418Z,2.80
2023-08-16T11:29:22.180Z,2.70
2023-08-16T11:31:49.642Z,2.60
2023-08-16T11:34:16.261Z,2.60
2023-08-16T11:36:42.834Z,2.50
2023-08-16T11:39:09.582Z,2.50
2023-08-16T11:41:37.423Z,2.50
2023-08-16T11:44:04.367Z,2.90
2023-08-16T11:46:41.572Z,2.90
2023-08-16T11:49:08.356Z,2.90
2023-08-16T11:51:38.639Z,2.80
2023-08-16T11:54:06.462Z,3.00
2023-08-16T11:56:33.164Z,2.80
2023-08-16T11:59:00.728Z,3.40
2023-08-16T12:01:27.566Z,2.90
2023-08-16T12:03:54.602Z,3.00
2023-08-16T12:06:21.780Z,3.00
2023-08-16T12:08:54.153Z,3.00
2023-08-16T12:11:34.957Z,3.00
2023-08-16T12:14:04.898Z,3.50
2023-08-16T12:16:34.079Z,3.80
2023-08-16T12:19:01.298Z,2.90
2023-08-16T12:21:28.381Z,3.00
2023-08-16T12:23:55.026Z,2.90
2023-08-16T12:26:22.072Z,2.90
2023-08-16T12:28:48.823Z,3.20
2023-08-16T12:31:15.616Z,3.10
2023-08-16T12:33:42.595Z,3.70
2023-08-16T12:36:09.474Z,3.50
2023-08-16T12:38:36.609Z,3.70
2023-08-16T12:41:03.637Z,3.60
2023-08-16T12:43:30.537Z,3.90
2023-08-16T12:45:57.292Z,3.80
2023-08-16T12:48:23.933Z,3.50
2023-08-16T12:51:03.781Z,3.60
2023-08-16T12:53:30.942Z,3.70
2023-08-16T12:56:01.003Z,3.50
2023-08-16T13:03:34.142Z,3.50
2023-08-16T13:08:32.655Z,3.90
2023-08-16T13:11:09.534Z,3.50
2023-08-16T13:13:38.661Z,3.60
2023-08-16T13:16:10.049Z,3.80
2023-08-16T13:23:58.692Z,4.50
2023-08-16T13:26:38.753Z,4.20
2023-08-16T13:29:10.870Z,4.90
2023-08-16T13:32:01.263Z,4.70
2023-08-16T13:39:28.093Z,5.10
2023-08-16T13:46:56.882Z,5.30
2023-08-16T13:49:23.906Z,4.70
2023-08-16T13:51:50.771Z,5.60
2023-08-16T13:54:17.463Z,6.40
2023-08-16T13:56:48.667Z,5.30
2023-08-16T13:59:16.450Z,4.80
2023-08-16T14:01:43.498Z,4.40
2023-08-16T14:04:10.366Z,5.20
2023-08-16T14:06:37.205Z,4.50
2023-08-16T14:09:04.250Z,4.40
2023-08-16T14:11:30.903Z,4.70
2023-08-16T14:13:57.586Z,5.30
2023-08-16T14:16:24.493Z,5.60
2023-08-16T14:18:51.551Z,5.60
2023-08-16T14:21:18.192Z,5.20
2023-08-16T14:23:44.840Z,4.20
2023-08-16T14:26:11.562Z,4.80
2023-08-16T14:28:38.336Z,5.20
2023-08-16T14:31:05.381Z,4.80
2023-08-16T14:33:32.052Z,4.90
2023-08-16T14:35:58.677Z,4.40
2023-08-16T14:38:25.214Z,5.00
2023-08-16T14:40:51.971Z,5.40
2023-08-16T14:43:18.724Z,5.40
2023-08-16T14:45:45.763Z,5.30
2023-08-16T14:48:12.569Z,4.80
2023-08-16T14:50:39.372Z,5.80
2023-08-16T14:53:06.022Z,6.10
2023-08-16T14:55:32.780Z,5.40
2023-08-16T14:58:05.160Z,6.10
2023-08-16T15:00:32.891Z,5.50
2023-08-16T15:03:00.628Z,5.70
2023-08-16T15:05:28.026Z,6.00
2023-08-16T15:07:55.199Z,5.30
2023-08-16T15:10:22.244Z,5.00
2023-08-16T15:12:48.891Z,5.50
2023-08-16T15:15:16.607Z,5.60
2023-08-16T15:17:43.313Z,5.60
2023-08-16T15:20:10.576Z,5.80
2023-08-16T15:22:37.387Z,6.70
2023-08-16T15:25:04.981Z,6.90
2023-08-16T15:27:31.623Z,6.70
2023-08-16T15:29:58.353Z,6.80
2023-08-16T15:32:25.485Z,5.90
2023-08-16T15:34:52.605Z,6.40
2023-08-16T15:37:19.258Z,6.70
2023-08-16T15:39:46.002Z,6.10
2023-08-16T15:42:12.761Z,5.90
2023-08-16T15:44:39.402Z,6.40
2023-08-16T15:47:06.574Z,7.70
2023-08-16T15:49:33.321Z,6.30
2023-08-16T15:52:00.273Z,6.40
2023-08-16T15:54:26.931Z,6.30
2023-08-16T15:56:53.569Z,5.90
2023-08-16T15:59:20.265Z,6.20
2023-08-16T16:01:47.716Z,6.20
2023-08-16T16:04:14.844Z,6.50
2023-08-16T16:06:41.610Z,6.30
2023-08-16T16:09:08.342Z,6.00
2023-08-16T16:11:35.188Z,6.00
2023-08-16T16:14:04.299Z,6.40
2023-08-16T16:16:32.148Z,6.10
2023-08-16T16:19:00.156Z,6.10
2023-08-16T16:21:27.105Z,6.40
2023-08-16T16:23:53.749Z,4.90
2023-08-16T16:26:20.806Z,5.80
2023-08-16T16:28:47.697Z,5.10
2023-08-16T16:31:14.410Z,5.60
2023-08-16T16:33:41.663Z,5.50
2023-08-16T16:36:08.413Z,5.60
2023-08-16T16:38:35.054Z,5.30
2023-08-16T16:41:01.725Z,5.50
2023-08-16T16:43:28.558Z,5.60
2023-08-16T16:45:55.286Z,5.20
2023-08-16T16:48:22.163Z,5.40
2023-08-16T16:50:48.914Z,5.30
2023-08-16T16:53:15.554Z,5.50
2023-08-16T16:55:42.698Z,5.50
2023-08-16T16:58:09.335Z,5.20
2023-08-16T17:00:35.968Z,5.70
2023-08-16T17:03:02.765Z,5.50
2023-08-16T17:05:29.944Z,5.90
2023-08-16T17:07:56.725Z,5.90
2023-08-16T17:10:23.481Z,6.20
2023-08-16T17:12:50.232Z,6.10
2023-08-16T17:15:17.081Z,6.70
2023-08-16T17:17:43.858Z,5.90
2023-08-16T17:20:11.094Z,6.30
2023-08-16T17:22:37.865Z,5.80
2023-08-16T17:25:05.492Z,5.70
2023-08-16T17:27:32.139Z,5.50
2023-08-16T17:29:59.056Z,5.60
2023-08-16T17:32:25.995Z,5.90
2023-08-16T17:34:52.795Z,5.90
2023-08-16T17:37:19.591Z,6.20
2023-08-16T17:39:46.559Z,6.40
2023-08-16T17:42:13.550Z,6.50
2023-08-16T17:44:40.292Z,5.70
2023-08-16T17:47:07.146Z,6.30
2023-08-16T17:49:34.013Z,5.70
2023-08-16T17:52:01.400Z,6.70
2023-08-16T17:54:28.125Z,6.70
2023-08-16T17:56:55.181Z,7.40
2023-08-16T17:59:21.945Z,7.30
2023-08-16T18:01:49.296Z,6.70
2023-08-16T18:04:16.139Z,6.30
2023-08-16T18:06:42.903Z,6.50
2023-08-16T18:09:09.651Z,6.90
2023-08-16T18:11:36.591Z,6.30
2023-08-16T18:14:04.369Z,5.80
2023-08-16T18:16:31.220Z,6.50
2023-08-16T18:18:58.344Z,5.90
2023-08-16T18:21:25.111Z,5.50
2023-08-16T18:23:51.977Z,5.40
2023-08-16T18:26:19.123Z,6.00
2023-08-16T18:28:45.857Z,7.50
2023-08-16T18:31:12.621Z,8.40
2023-08-16T18:33:39.350Z,8.70
2023-08-16T18:36:06.095Z,8.40
2023-08-16T18:38:32.750Z,8.60
2023-08-16T18:41:05.574Z,7.70
2023-08-16T18:43:32.280Z,7.90
2023-08-16T18:46:00.218Z,8.70
2023-08-16T18:48:26.997Z,8.00
2023-08-16T18:50:53.647Z,7.90
2023-08-16T18:53:20.649Z,8.50
2023-08-16T18:55:47.443Z,7.90
2023-08-16T18:58:14.496Z,9.60
2023-08-16T19:00:41.187Z,9.80
2023-08-16T19:03:08.004Z,10.70
2023-08-16T19:05:34.738Z,10.50
2023-08-16T19:08:01.508Z,12.40
2023-08-16T19:10:29.479Z,10.80
2023-08-16T19:12:56.226Z,9.80
2023-08-16T19:15:23.064Z,9.50
2023-08-16T19:17:51.837Z,9.60
2023-08-16T19:20:18.622Z,9.70
2023-08-16T19:22:45.670Z,9.50
2023-08-16T19:25:12.414Z,9.40
2023-08-16T19:27:40.000Z,9.50
2023-08-16T19:30:07.765Z,9.40
2023-08-16T19:32:34.668Z,10.00
2023-08-16T19:35:01.490Z,9.50
2023-08-16T19:37:28.359Z,9.10
2023-08-16T19:39:55.364Z,9.80
2023-08-16T19:42:22.012Z,8.80
2023-08-16T19:44:48.658Z,9.90
2023-08-16T19:47:15.263Z,9.10
2023-08-16T19:49:46.454Z,8.70
2023-08-16T19:52:13.197Z,9.30
2023-08-16T19:54:39.956Z,8.90
2023-08-16T19:57:11.703Z,8.70
2023-08-16T19:59:38.351Z,9.20
2023-08-16T20:02:05.761Z,8.60
2023-08-16T20:04:32.448Z,9.80
2023-08-16T20:06:59.189Z,9.60
2023-08-16T20:09:25.952Z,9.20
2023-08-16T20:11:52.584Z,10.00
2023-08-16T20:14:19.537Z,9.20
2023-08-16T20:16:46.187Z,9.40
2023-08-16T20:19:13.032Z,9.20
2023-08-16T20:21:39.783Z,9.60
2023-08-16T20:24:07.052Z,9.50
2023-08-16T20:26:33.890Z,10.60
2023-08-16T20:29:00.635Z,9.80
2023-08-16T20:31:27.297Z,10.70
2023-08-16T20:33:54.041Z,10.70
2023-08-16T20:36:20.776Z,10.00
2023-08-16T20:38:47.535Z,9.80
2023-08-16T20:41:14.375Z,9.90
2023-08-16T20:43:43.368Z,11.00
2023-08-16T20:46:10.293Z,9.80
2023-08-16T20:48:37.102Z,9.30
2023-08-16T20:51:03.887Z,9.90
2023-08-16T20:53:30.559Z,9.20
2023-08-16T20:55:57.204Z,9.50
2023-08-16T20:58:23.969Z,8.80
2023-08-16T21:00:50.615Z,9.00
2023-08-16T21:03:17.375Z,9.00
2023-08-16T21:05:44.098Z,9.30
2023-08-16T21:08:10.960Z,8.90
2023-08-16T21:10:37.768Z,9.30
2023-08-16T21:13:04.860Z,9.10
2023-08-16T21:15:31.654Z,10.00
2023-08-16T21:17:58.572Z,9.90
2023-08-16T21:20:26.059Z,9.90
2023-08-16T21:22:53.409Z,10.70
2023-08-16T21:25:20.235Z,9.80
2023-08-16T21:27:46.968Z,10.20
2023-08-16T21:30:13.718Z,9.40
2023-08-16T21:32:40.370Z,9.70
2023-08-16T21:35:07.407Z,9.80
2023-08-16T21:37:34.154Z,9.80
2023-08-16T21:40:00.802Z,10.30
2023-08-16T21:42:27.592Z,10.70
2023-08-16T21:44:54.293Z,11.00
2023-08-16T21:47:21.138Z,10.80
2023-08-16T21:49:47.783Z,11.60
2023-08-16T21:52:14.431Z,11.00
2023-08-16T21:54:41.072Z,10.90
2023-08-16T21:57:10.904Z,11.30
2023-08-16T21:59:37.563Z,10.80
2023-08-16T22:02:04.554Z,10.50
2023-08-16T22:04:31.352Z,10.60
2023-08-16T22:06:58.107Z,10.80
2023-08-16T22:09:24.749Z,10.00
2023-08-16T22:11:51.499Z,10.10
2023-08-16T22:14:18.143Z,10.10
2023-08-16T22:16:45.018Z,10.80
2023-08-16T22:19:12.454Z,11.00
2023-08-16T22:21:40.544Z,10.80
2023-08-16T22:24:08.468Z,10.40
2023-08-16T22:26:36.228Z,11.40
2023-08-16T22:29:03.245Z,10.20
2023-08-16T22:31:30.228Z,10.50
2023-08-16T22:33:57.050Z,10.50
2023-08-16T22:36:24.097Z,9.80
2023-08-16T22:38:50.951Z,10.50
2023-08-16T22:41:17.792Z,10.70
2023-08-16T22:43:45.814Z,10.50
2023-08-16T22:46:12.658Z,11.10
2023-08-16T22:48:40.088Z,9.90
2023-08-16T22:51:06.938Z,10.50
2023-08-16T22:53:34.441Z,10.20
2023-08-16T22:56:01.148Z,10.20
2023-08-16T22:58:27.804Z,10.50
2023-08-16T23:00:54.436Z,10.30
2023-08-16T23:03:21.305Z,9.60
2023-08-16T23:05:47.941Z,10.10
2023-08-16T23:08:14.704Z,9.70
2023-08-16T23:10:42.978Z,10.00
2023-08-16T23:13:09.748Z,10.10
2023-08-16T23:15:37.902Z,10.10
2023-08-16T23:18:06.053Z,10.20
2023-08-16T23:20:32.834Z,10.30
2023-08-16T23:22:59.489Z,11.00
2023-08-16T23:25:26.229Z,11.30
2023-08-16T23:27:53.085Z,11.10
2023-08-16T23:30:19.721Z,10.60
2023-08-16T23:32:46.489Z,11.40
2023-08-16T23:35:13.496Z,11.00
2023-08-16T23:37:40.182Z,12.10
2023-08-16T23:40:07.328Z,11.60
2023-08-16T23:42:34.389Z,11.40
2023-08-16T23:45:01.045Z,11.40
2023-08-16T23:47:28.082Z,11.20
2023-08-16T23:49:55.250Z,10.80
2023-08-16T23:52:21.900Z,10.80
2023-08-16T23:54:48.636Z,10.30
2023-08-16T23:57:15.285Z,10.40
2023-08-16T23:59:42.349Z,10.50
